createdAt,value
2022-12-25T00:00:58.002Z,145.90
2022-12-25T00:01:57.970Z,137.40
2022-12-25T00:02:58.057Z,140.20
2022-12-25T00:03:58.083Z,142.20
2022-12-25T00:04:57.920Z,140.80
2022-12-25T00:05:57.920Z,150.20
2022-12-25T00:06:57.917Z,150.80
2022-12-25T00:07:57.887Z,143.90
2022-12-25T00:08:57.879Z,135.40
2022-12-25T00:09:57.851Z,134.50
2022-12-25T00:10:57.895Z,138.80
2022-12-25T00:11:57.867Z,138.60
2022-12-25T00:12:57.833Z,133.70
2022-12-25T00:13:57.815Z,142.80
2022-12-25T00:14:57.818Z,143.10
2022-12-25T00:15:57.814Z,143.40
2022-12-25T00:16:57.856Z,136.90
2022-12-25T00:17:57.784Z,128.00
2022-12-25T00:18:57.773Z,142.40
2022-12-25T00:19:57.768Z,147.30
2022-12-25T00:20:57.746Z,139.50
2022-12-25T00:21:57.770Z,140.30
2022-12-25T00:22:57.737Z,134.20
2022-12-25T00:23:57.737Z,132.50
2022-12-25T00:24:57.717Z,137.60
2022-12-25T00:25:57.710Z,134.80
2022-12-25T00:26:57.708Z,141.50
2022-12-25T00:27:57.672Z,148.30
2022-12-25T00:28:57.677Z,152.50
2022-12-25T00:29:57.656Z,144.10
2022-12-25T00:30:57.681Z,131.90
2022-12-25T00:31:57.664Z,120.20
2022-12-25T00:32:57.625Z,127.20
2022-12-25T00:33:57.611Z,134.50
2022-12-25T00:34:57.611Z,134.60
2022-12-25T00:35:57.592Z,134.40
2022-12-25T00:36:57.611Z,135.30
2022-12-25T00:37:57.610Z,140.10
2022-12-25T00:38:57.584Z,141.60
2022-12-25T00:39:57.612Z,134.20
2022-12-25T00:40:57.599Z,129.60
2022-12-25T00:41:57.551Z,129.20
2022-12-25T00:42:57.550Z,121.80
2022-12-25T00:43:57.537Z,127.80
2022-12-25T00:44:57.509Z,137.70
2022-12-25T00:45:57.534Z,140.40
2022-12-25T00:46:57.564Z,127.10
2022-12-25T00:47:57.472Z,134.50
2022-12-25T00:48:57.470Z,135.70
2022-12-25T00:49:57.449Z,132.00
2022-12-25T00:50:57.445Z,134.60
2022-12-25T00:51:57.458Z,139.60
2022-12-25T00:52:57.432Z,145.20
2022-12-25T00:53:57.414Z,147.50
2022-12-25T00:54:57.402Z,141.00
2022-12-25T00:55:57.414Z,145.90
2022-12-25T00:56:57.412Z,154.30
2022-12-25T00:57:57.374Z,147.90
2022-12-25T00:58:57.380Z,141.50
2022-12-25T00:59:57.351Z,130.80
2022-12-25T01:00:57.471Z,129.20
2022-12-25T01:01:57.482Z,125.00
2022-12-25T01:02:57.549Z,122.40
2022-12-25T01:03:57.310Z,126.60
2022-12-25T01:04:57.333Z,132.80
2022-12-25T01:05:57.293Z,137.80
2022-12-25T01:06:57.301Z,143.80
2022-12-25T01:07:57.272Z,134.20
2022-12-25T01:08:57.257Z,138.40
2022-12-25T01:09:57.252Z,141.30
2022-12-25T01:10:57.238Z,154.40
2022-12-25T01:11:57.239Z,151.40
2022-12-25T01:12:57.250Z,149.60
2022-12-25T01:13:57.218Z,145.80
2022-12-25T01:14:57.229Z,149.60
2022-12-25T01:15:57.300Z,150.80
2022-12-25T01:16:57.303Z,158.20
2022-12-25T01:17:57.186Z,148.70
2022-12-25T01:18:57.183Z,155.50
2022-12-25T01:19:57.145Z,152.10
2022-12-25T01:21:03.632Z,154.40
2022-12-25T01:21:57.138Z,151.20
2022-12-25T01:22:57.114Z,154.90
2022-12-25T01:23:57.103Z,158.00
2022-12-25T01:24:57.117Z,146.20
2022-12-25T01:25:57.081Z,151.30
2022-12-25T01:26:57.094Z,154.40
2022-12-25T01:27:57.064Z,157.90
2022-12-25T01:28:57.061Z,162.20
2022-12-25T01:29:57.046Z,160.50
2022-12-25T01:30:57.068Z,156.40
2022-12-25T01:31:57.116Z,152.90
2022-12-25T01:32:57.025Z,160.10
2022-12-25T01:33:57.013Z,156.40
2022-12-25T01:34:56.994Z,161.90
2022-12-25T01:35:56.989Z,154.40
2022-12-25T01:36:56.994Z,156.80
2022-12-25T01:37:56.973Z,155.30
2022-12-25T01:38:56.970Z,155.90
2022-12-25T01:39:56.967Z,157.90
2022-12-25T01:40:56.938Z,160.20
2022-12-25T01:41:56.954Z,156.00
2022-12-25T01:42:56.920Z,153.40
2022-12-25T01:43:56.898Z,154.10
2022-12-25T01:44:56.903Z,156.30
2022-12-25T01:45:56.915Z,154.40
2022-12-25T01:46:56.897Z,153.30
2022-12-25T01:47:56.869Z,150.80
2022-12-25T01:48:56.873Z,147.50
2022-12-25T01:49:56.849Z,145.10
2022-12-25T01:50:56.828Z,141.20
2022-12-25T01:51:56.865Z,140.20
2022-12-25T01:52:56.838Z,134.10
2022-12-25T01:53:56.790Z,134.30
2022-12-25T01:54:56.797Z,142.20
2022-12-25T01:56:03.258Z,138.20
2022-12-25T01:56:56.812Z,146.00
2022-12-25T01:58:03.245Z,138.00
2022-12-25T01:59:03.226Z,128.80
2022-12-25T01:59:56.748Z,132.90
2022-12-25T02:01:02.877Z,127.40
2022-12-25T02:01:56.947Z,133.60
2022-12-25T02:02:56.876Z,131.60
2022-12-25T02:03:56.698Z,126.60
2022-12-25T02:04:56.681Z,126.00
2022-12-25T02:05:56.685Z,119.50
2022-12-25T02:06:56.666Z,118.30
2022-12-25T02:07:56.673Z,122.80
2022-12-25T02:08:56.637Z,121.60
2022-12-25T02:09:56.633Z,116.30
2022-12-25T02:10:56.634Z,117.30
2022-12-25T02:11:56.632Z,119.10
2022-12-25T02:12:56.672Z,122.40
2022-12-25T02:13:56.613Z,118.90
2022-12-25T02:15:02.881Z,128.00
2022-12-25T02:15:56.593Z,122.00
2022-12-25T02:16:58.855Z,119.80
2022-12-25T02:17:56.590Z,121.30
2022-12-25T02:18:56.551Z,122.30
2022-12-25T02:19:56.550Z,121.50
2022-12-25T02:20:56.550Z,127.40
2022-12-25T02:21:56.604Z,122.40
2022-12-25T02:22:56.527Z,121.00
2022-12-25T02:23:56.513Z,125.50
2022-12-25T02:24:56.494Z,128.70
2022-12-25T02:25:56.497Z,124.70
2022-12-25T02:26:56.485Z,130.80
2022-12-25T02:27:56.473Z,118.90
2022-12-25T02:28:56.437Z,123.90
2022-12-25T02:29:56.475Z,130.00
2022-12-25T02:30:56.426Z,123.20
2022-12-25T02:31:56.471Z,133.10
2022-12-25T02:32:56.419Z,126.40
2022-12-25T02:33:56.388Z,133.10
2022-12-25T02:34:56.378Z,131.60
2022-12-25T02:35:56.361Z,124.80
2022-12-25T02:36:56.362Z,127.00
2022-12-25T02:37:56.364Z,128.00
2022-12-25T02:38:56.335Z,128.80
2022-12-25T02:39:56.326Z,127.40
2022-12-25T02:40:56.310Z,123.90
2022-12-25T02:41:56.309Z,127.40
2022-12-25T02:42:56.313Z,125.60
2022-12-25T02:43:56.296Z,128.00
2022-12-25T02:44:56.272Z,123.60
2022-12-25T02:45:56.289Z,123.30
2022-12-25T02:46:56.256Z,127.10
2022-12-25T02:47:56.267Z,127.00
2022-12-25T02:48:56.263Z,132.80
2022-12-25T02:49:56.237Z,135.00
2022-12-25T02:50:56.209Z,131.10
2022-12-25T02:51:56.202Z,134.40
2022-12-25T02:52:56.216Z,133.30
2022-12-25T02:53:56.182Z,137.20
2022-12-25T02:54:56.176Z,134.50
2022-12-25T02:55:56.165Z,124.60
2022-12-25T02:56:56.190Z,128.10
2022-12-25T02:57:56.163Z,126.30
2022-12-25T02:58:56.122Z,129.60
2022-12-25T02:59:56.116Z,127.30
2022-12-25T03:00:56.135Z,124.60
2022-12-25T03:01:56.260Z,123.10
2022-12-25T03:02:56.180Z,123.10
2022-12-25T03:03:56.076Z,124.00
2022-12-25T03:04:56.068Z,127.90
2022-12-25T03:05:56.046Z,126.60
2022-12-25T03:06:56.050Z,125.30
2022-12-25T03:07:56.061Z,129.60
2022-12-25T03:08:56.032Z,139.00
2022-12-25T03:09:56.012Z,138.30
2022-12-25T03:10:56.060Z,133.30
2022-12-25T03:11:55.996Z,142.50
2022-12-25T03:12:56.011Z,139.20
2022-12-25T03:13:55.967Z,148.10
2022-12-25T03:14:55.985Z,144.10
2022-12-25T03:15:55.954Z,142.70
2022-12-25T03:16:56.076Z,141.70
2022-12-25T03:17:55.928Z,145.10
2022-12-25T03:18:55.954Z,146.50
2022-12-25T03:19:55.914Z,143.70
2022-12-25T03:20:55.911Z,149.40
2022-12-25T03:21:55.904Z,146.90
2022-12-25T03:22:55.880Z,150.80
2022-12-25T03:23:55.903Z,151.10
2022-12-25T03:24:55.912Z,149.00
2022-12-25T03:25:55.847Z,147.70
2022-12-25T03:26:55.849Z,150.00
2022-12-25T03:27:55.853Z,148.60
2022-12-25T03:28:55.849Z,148.70
2022-12-25T03:29:55.808Z,144.20
2022-12-25T03:30:55.836Z,149.50
2022-12-25T03:31:55.789Z,148.30
2022-12-25T03:32:55.784Z,145.90
2022-12-25T03:33:55.808Z,149.60
2022-12-25T03:34:55.762Z,151.70
2022-12-25T03:35:55.757Z,150.40
2022-12-25T03:36:55.749Z,152.20
2022-12-25T03:37:55.729Z,155.60
2022-12-25T03:38:55.744Z,156.40
2022-12-25T03:39:55.718Z,152.30
2022-12-25T03:40:55.695Z,152.40
2022-12-25T03:42:02.173Z,150.60
2022-12-25T03:43:02.162Z,156.80
2022-12-25T03:44:03.477Z,151.90
2022-12-25T03:44:55.657Z,158.40
2022-12-25T03:45:55.737Z,157.00
2022-12-25T03:46:55.644Z,164.90
2022-12-25T03:47:55.624Z,166.50
2022-12-25T03:48:55.635Z,162.30
2022-12-25T03:49:55.602Z,170.10
2022-12-25T03:50:55.593Z,170.50
2022-12-25T03:51:55.603Z,164.50
2022-12-25T03:52:55.581Z,167.30
2022-12-25T03:53:55.592Z,164.90
2022-12-25T03:54:55.561Z,168.30
2022-12-25T03:55:55.582Z,166.10
2022-12-25T03:56:55.537Z,172.90
2022-12-25T03:57:55.525Z,172.10
2022-12-25T04:00:22.529Z,176.10
2022-12-25T04:00:27.547Z,183.20
2022-12-25T04:01:27.707Z,194.10
2022-12-25T04:02:27.746Z,181.80
2022-12-25T04:03:27.572Z,176.80
2022-12-25T04:04:27.531Z,180.30
2022-12-25T04:05:27.494Z,181.90
2022-12-25T04:06:27.496Z,184.40
2022-12-25T04:07:27.487Z,185.30
2022-12-25T04:08:27.467Z,189.20
2022-12-25T04:09:27.478Z,191.60
2022-12-25T04:10:27.469Z,190.80
2022-12-25T04:11:27.431Z,192.00
2022-12-25T04:12:27.431Z,198.60
2022-12-25T04:13:27.419Z,198.30
2022-12-25T04:14:27.425Z,195.90
2022-12-25T04:15:27.427Z,192.10
2022-12-25T04:16:27.466Z,197.80
2022-12-25T04:17:27.381Z,194.10
2022-12-25T04:18:27.370Z,201.40
2022-12-25T04:19:27.391Z,199.30
2022-12-25T04:20:27.348Z,199.20
2022-12-25T04:21:27.338Z,200.50
2022-12-25T04:22:27.319Z,196.20
2022-12-25T04:23:27.302Z,191.30
2022-12-25T04:24:27.325Z,194.90
2022-12-25T04:25:27.292Z,200.10
2022-12-25T04:26:27.281Z,194.70
2022-12-25T04:27:27.263Z,197.00
2022-12-25T04:28:27.277Z,193.10
2022-12-25T04:29:27.267Z,200.70
2022-12-25T04:30:27.235Z,194.70
2022-12-25T04:31:27.295Z,199.80
2022-12-25T04:32:27.218Z,200.90
2022-12-25T04:33:27.211Z,200.50
2022-12-25T04:34:27.245Z,192.80
2022-12-25T04:35:27.182Z,192.80
2022-12-25T04:36:27.175Z,197.50
2022-12-25T04:37:27.171Z,193.40
2022-12-25T04:38:27.162Z,191.70
2022-12-25T04:39:27.172Z,186.60
2022-12-25T04:40:27.145Z,190.80
2022-12-25T04:41:27.125Z,182.20
2022-12-25T04:42:27.116Z,189.80
2022-12-25T04:43:27.103Z,191.40
2022-12-25T04:44:27.114Z,188.20
2022-12-25T04:45:27.079Z,182.10
2022-12-25T04:46:27.163Z,179.30
2022-12-25T04:47:27.067Z,175.30
2022-12-25T04:48:27.064Z,183.70
2022-12-25T04:49:27.064Z,180.20
2022-12-25T04:50:27.051Z,176.30
2022-12-25T04:51:27.049Z,176.40
2022-12-25T04:52:27.023Z,178.90
2022-12-25T04:53:27.011Z,191.00
2022-12-25T04:54:27.014Z,188.40
2022-12-25T04:55:26.979Z,185.10
2022-12-25T04:56:26.968Z,181.20
2022-12-25T04:57:27.010Z,180.60
2022-12-25T04:58:26.953Z,178.60
2022-12-25T04:59:26.968Z,191.80
2022-12-25T05:00:26.954Z,193.80
2022-12-25T05:01:27.040Z,194.20
2022-12-25T05:02:27.141Z,191.20
2022-12-25T05:03:26.959Z,192.10
2022-12-25T05:04:26.896Z,187.20
2022-12-25T05:05:26.902Z,194.30
2022-12-25T05:06:26.902Z,197.00
2022-12-25T05:07:26.857Z,192.50
2022-12-25T05:08:26.849Z,192.10
2022-12-25T05:09:26.836Z,200.90
2022-12-25T05:10:26.862Z,195.50
2022-12-25T05:11:26.814Z,200.50
2022-12-25T05:12:26.811Z,201.80
2022-12-25T05:13:26.795Z,199.90
2022-12-25T05:14:26.783Z,204.40
2022-12-25T05:15:26.788Z,198.00
2022-12-25T05:16:26.891Z,200.20
2022-12-25T05:17:26.759Z,200.30
2022-12-25T05:18:26.747Z,206.90
2022-12-25T05:19:26.725Z,212.60
2022-12-25T05:20:26.749Z,207.40
2022-12-25T05:21:26.714Z,204.30
2022-12-25T05:22:26.721Z,200.10
2022-12-25T05:23:26.687Z,201.70
2022-12-25T05:24:26.696Z,206.20
2022-12-25T05:25:26.689Z,212.20
2022-12-25T05:26:26.671Z,207.20
2022-12-25T05:27:26.648Z,201.70
2022-12-25T05:28:26.643Z,202.90
2022-12-25T05:29:26.621Z,203.10
2022-12-25T05:30:26.643Z,201.10
2022-12-25T05:31:26.653Z,197.50
2022-12-25T05:32:26.596Z,199.20
2022-12-25T05:33:26.596Z,202.20
2022-12-25T05:34:26.575Z,202.00
2022-12-25T05:35:26.596Z,202.30
2022-12-25T05:36:26.565Z,199.40
2022-12-25T05:37:26.554Z,199.00
2022-12-25T05:38:26.542Z,203.30
2022-12-25T05:39:26.522Z,206.50
2022-12-25T05:40:26.537Z,205.70
2022-12-25T05:41:32.228Z,201.90
2022-12-25T05:42:26.497Z,198.80
2022-12-25T05:43:26.479Z,195.70
2022-12-25T05:44:26.473Z,186.60
2022-12-25T05:45:26.489Z,176.90
2022-12-25T05:46:26.508Z,173.10
2022-12-25T05:47:26.457Z,179.90
2022-12-25T05:48:26.378Z,183.70
2022-12-25T05:49:26.361Z,182.10
2022-12-25T05:50:26.394Z,193.40
2022-12-25T05:51:26.339Z,195.60
2022-12-25T05:52:26.341Z,191.30
2022-12-25T05:53:26.335Z,194.10
2022-12-25T05:54:26.313Z,189.00
2022-12-25T05:55:26.329Z,191.80
2022-12-25T05:56:26.295Z,182.60
2022-12-25T05:57:26.282Z,188.40
2022-12-25T05:58:26.271Z,194.30
2022-12-25T05:59:26.269Z,199.80
2022-12-25T06:00:26.250Z,197.00
2022-12-25T06:01:26.304Z,191.80
2022-12-25T06:02:33.497Z,188.40
2022-12-25T06:03:26.360Z,183.20
2022-12-25T06:04:32.689Z,181.00
2022-12-25T06:05:34.018Z,172.00
2022-12-25T06:06:26.190Z,176.00
2022-12-25T06:07:26.195Z,179.60
2022-12-25T06:08:26.161Z,187.40
2022-12-25T06:09:26.160Z,187.90
2022-12-25T06:10:26.140Z,190.80
2022-12-25T06:11:26.160Z,173.50
2022-12-25T06:12:26.144Z,165.30
2022-12-25T06:13:26.113Z,161.30
2022-12-25T06:14:26.102Z,164.50
2022-12-25T06:15:26.097Z,178.50
2022-12-25T06:16:26.159Z,188.00
2022-12-25T06:17:26.098Z,187.90
2022-12-25T06:18:26.069Z,183.40
2022-12-25T06:19:26.055Z,184.70
2022-12-25T06:20:26.043Z,177.90
2022-12-25T06:21:26.055Z,179.00
2022-12-25T06:22:26.025Z,171.30
2022-12-25T06:23:26.056Z,175.70
2022-12-25T06:24:25.997Z,173.60
2022-12-25T06:25:25.995Z,180.90
2022-12-25T06:26:25.996Z,176.80
2022-12-25T06:27:25.971Z,181.80
2022-12-25T06:28:25.956Z,179.70
2022-12-25T06:29:25.949Z,180.10
2022-12-25T06:30:25.933Z,176.60
2022-12-25T06:31:31.990Z,181.20
2022-12-25T06:32:32.426Z,173.80
2022-12-25T06:33:32.396Z,176.70
2022-12-25T06:34:32.374Z,174.00
2022-12-25T06:35:31.877Z,177.00
2022-12-25T06:36:33.606Z,168.80
2022-12-25T06:37:25.874Z,168.30
2022-12-25T06:38:25.853Z,166.00
2022-12-25T06:39:25.848Z,170.30
2022-12-25T06:40:25.831Z,164.90
2022-12-25T06:41:25.851Z,165.20
2022-12-25T06:42:25.816Z,172.90
2022-12-25T06:43:25.811Z,166.80
2022-12-25T06:44:25.790Z,166.90
2022-12-25T06:45:25.837Z,168.30
2022-12-25T06:46:25.867Z,172.60
2022-12-25T06:47:25.803Z,173.20
2022-12-25T06:48:25.764Z,180.80
2022-12-25T06:49:25.751Z,172.50
2022-12-25T06:50:25.740Z,181.10
2022-12-25T06:51:25.746Z,180.20
2022-12-25T06:52:25.714Z,180.70
2022-12-25T06:53:25.706Z,175.10
2022-12-25T06:54:25.687Z,174.50
2022-12-25T06:55:25.688Z,171.20
2022-12-25T06:56:25.692Z,173.50
2022-12-25T06:57:25.671Z,168.20
2022-12-25T06:58:25.644Z,168.20
2022-12-25T06:59:25.642Z,170.60
2022-12-25T07:00:25.627Z,174.80
2022-12-25T07:01:25.797Z,176.10
2022-12-25T07:02:25.695Z,177.90
2022-12-25T07:03:25.666Z,175.80
2022-12-25T07:04:25.591Z,178.60
2022-12-25T07:05:25.579Z,179.80
2022-12-25T07:06:25.588Z,184.50
2022-12-25T07:07:25.569Z,184.40
2022-12-25T07:08:25.553Z,180.00
2022-12-25T07:09:25.538Z,186.50
2022-12-25T07:10:25.527Z,192.90
2022-12-25T07:11:25.567Z,193.70
2022-12-25T07:12:25.510Z,186.70
2022-12-25T07:13:26.289Z,189.80
2022-12-25T07:14:25.480Z,178.10
2022-12-25T07:15:25.483Z,179.70
2022-12-25T07:16:25.500Z,179.70
2022-12-25T07:17:25.455Z,191.50
2022-12-25T07:18:25.466Z,185.00
2022-12-25T07:19:25.436Z,190.60
2022-12-25T07:20:25.432Z,190.00
2022-12-25T07:21:25.451Z,194.30
2022-12-25T07:22:25.401Z,194.70
2022-12-25T07:23:25.394Z,201.30
2022-12-25T07:24:25.386Z,198.30
2022-12-25T07:25:25.372Z,197.90
2022-12-25T07:26:25.360Z,194.80
2022-12-25T07:27:25.403Z,187.00
2022-12-25T07:28:25.352Z,186.50
2022-12-25T07:29:25.339Z,191.30
2022-12-25T07:30:25.318Z,183.00
2022-12-25T07:31:25.393Z,172.60
2022-12-25T07:32:25.366Z,172.60
2022-12-25T07:33:25.309Z,170.40
2022-12-25T07:34:25.289Z,167.40
2022-12-25T07:35:25.275Z,161.90
2022-12-25T07:36:25.266Z,168.30
2022-12-25T07:37:25.310Z,165.00
2022-12-25T07:38:25.257Z,163.80
2022-12-25T07:39:25.235Z,158.90
2022-12-25T07:40:25.215Z,167.50
2022-12-25T07:41:25.223Z,168.50
2022-12-25T07:42:25.619Z,165.50
2022-12-25T07:43:25.205Z,164.70
2022-12-25T07:44:25.184Z,160.90
2022-12-25T07:45:25.215Z,163.00
2022-12-25T07:46:25.267Z,165.30
2022-12-25T07:47:25.187Z,167.30
2022-12-25T07:48:25.145Z,161.60
2022-12-25T07:49:25.128Z,166.00
2022-12-25T07:50:25.106Z,167.40
2022-12-25T07:51:25.113Z,162.30
2022-12-25T07:52:25.233Z,161.20
2022-12-25T07:53:25.109Z,169.60
2022-12-25T07:54:25.085Z,170.00
2022-12-25T07:55:25.111Z,176.70
2022-12-25T07:56:25.077Z,177.10
2022-12-25T07:57:25.096Z,177.80
2022-12-25T07:58:25.057Z,173.80
2022-12-25T07:59:25.021Z,174.70
2022-12-25T08:00:25.032Z,179.10
2022-12-25T08:01:25.292Z,183.10
2022-12-25T08:02:25.498Z,175.20
2022-12-25T08:03:25.166Z,172.30
2022-12-25T08:04:25.003Z,172.30
2022-12-25T08:05:25.007Z,167.60
2022-12-25T08:06:24.943Z,170.10
2022-12-25T08:07:24.998Z,171.30
2022-12-25T08:08:24.932Z,180.60
2022-12-25T08:09:24.928Z,178.80
2022-12-25T08:10:24.922Z,178.20
2022-12-25T08:11:24.931Z,173.80
2022-12-25T08:12:24.977Z,175.70
2022-12-25T08:13:24.899Z,171.20
2022-12-25T08:14:24.866Z,174.50
2022-12-25T08:15:24.871Z,172.70
2022-12-25T08:16:24.950Z,170.30
2022-12-25T08:17:24.885Z,171.90
2022-12-25T08:18:29.839Z,167.50
2022-12-25T08:19:24.850Z,165.50
2022-12-25T08:20:24.819Z,159.30
2022-12-25T08:21:24.795Z,160.50
2022-12-25T08:22:24.808Z,156.60
2022-12-25T08:23:24.797Z,155.30
2022-12-25T08:24:24.792Z,155.60
2022-12-25T08:25:24.759Z,157.30
2022-12-25T08:26:24.748Z,151.00
2022-12-25T08:27:24.758Z,161.30
2022-12-25T08:28:24.722Z,160.20
2022-12-25T08:29:24.717Z,152.40
2022-12-25T08:30:24.703Z,154.60
2022-12-25T08:31:24.769Z,150.20
2022-12-25T08:32:24.711Z,143.00
2022-12-25T08:33:24.672Z,142.80
2022-12-25T08:34:24.659Z,143.10
2022-12-25T08:35:24.653Z,140.50
2022-12-25T08:36:24.663Z,133.50
2022-12-25T08:37:24.655Z,140.10
2022-12-25T08:38:24.619Z,145.50
2022-12-25T08:39:24.619Z,146.50
2022-12-25T08:40:24.667Z,140.00
2022-12-25T08:41:24.595Z,140.50
2022-12-25T08:42:24.624Z,137.90
2022-12-25T08:43:24.575Z,145.20
2022-12-25T08:44:24.563Z,142.90
2022-12-25T08:45:27.394Z,146.80
2022-12-25T08:46:24.652Z,145.90
2022-12-25T08:47:24.530Z,143.50
2022-12-25T08:48:24.566Z,136.70
2022-12-25T08:49:24.533Z,136.30
2022-12-25T08:50:24.554Z,145.50
2022-12-25T08:51:24.498Z,150.10
2022-12-25T08:52:24.477Z,147.50
2022-12-25T08:53:24.523Z,147.70
2022-12-25T08:54:24.487Z,151.60
2022-12-25T08:55:24.455Z,145.70
2022-12-25T08:56:24.448Z,142.90
2022-12-25T08:57:24.429Z,142.90
2022-12-25T08:58:24.438Z,134.20
2022-12-25T08:59:24.404Z,137.00
2022-12-25T09:00:24.403Z,133.20
2022-12-25T09:01:24.473Z,137.40
2022-12-25T09:02:24.532Z,133.40
2022-12-25T09:03:24.599Z,139.40
2022-12-25T09:04:24.360Z,139.90
2022-12-25T09:05:24.355Z,140.60
2022-12-25T09:06:24.334Z,141.00
2022-12-25T09:07:24.344Z,140.50
2022-12-25T09:08:24.350Z,139.70
2022-12-25T09:09:24.319Z,135.80
2022-12-25T09:10:24.299Z,145.10
2022-12-25T09:11:24.283Z,139.10
2022-12-25T09:12:24.294Z,140.80
2022-12-25T09:13:24.286Z,137.60
2022-12-25T09:14:24.256Z,141.00
2022-12-25T09:15:24.247Z,146.80
2022-12-25T09:16:24.321Z,149.10
2022-12-25T09:17:24.310Z,145.20
2022-12-25T09:18:24.230Z,140.80
2022-12-25T09:19:24.201Z,140.90
2022-12-25T09:20:24.204Z,139.00
2022-12-25T09:21:24.183Z,140.90
2022-12-25T09:22:24.221Z,134.60
2022-12-25T09:23:24.184Z,132.90
2022-12-25T09:24:24.156Z,133.60
2022-12-25T09:25:24.145Z,142.90
2022-12-25T09:26:24.138Z,141.40
2022-12-25T09:27:24.128Z,147.60
2022-12-25T09:28:24.139Z,151.00
2022-12-25T09:29:24.107Z,151.30
2022-12-25T09:30:24.095Z,153.30
2022-12-25T09:31:24.209Z,139.60
2022-12-25T09:32:24.079Z,138.80
2022-12-25T09:33:24.076Z,139.60
2022-12-25T09:34:24.043Z,142.70
2022-12-25T09:35:24.045Z,140.10
2022-12-25T09:36:24.053Z,145.20
2022-12-25T09:37:24.027Z,143.30
2022-12-25T09:38:24.028Z,142.80
2022-12-25T09:39:24.012Z,144.80
2022-12-25T09:40:24.001Z,141.80
2022-12-25T09:41:23.984Z,148.60
2022-12-25T09:42:23.959Z,150.30
2022-12-25T09:43:31.611Z,151.70
2022-12-25T09:44:31.204Z,150.50
2022-12-25T09:45:30.431Z,152.80
2022-12-25T09:46:24.023Z,145.40
2022-12-25T09:47:23.929Z,148.30
2022-12-25T09:48:23.903Z,150.90
2022-12-25T09:49:23.940Z,148.10
2022-12-25T09:50:23.891Z,148.50
2022-12-25T09:51:23.874Z,148.60
2022-12-25T09:52:23.865Z,154.40
2022-12-25T09:53:23.868Z,150.60
2022-12-25T09:54:23.874Z,146.70
2022-12-25T09:55:23.835Z,143.80
2022-12-25T09:56:23.827Z,157.30
2022-12-25T09:57:23.809Z,159.00
2022-12-25T09:58:23.797Z,157.40
2022-12-25T09:59:23.819Z,147.70
2022-12-25T10:00:23.807Z,148.70
2022-12-25T10:01:23.852Z,149.90
2022-12-25T10:02:24.042Z,150.80
2022-12-25T10:03:23.827Z,154.60
2022-12-25T10:04:23.794Z,157.30
2022-12-25T10:05:23.744Z,149.10
2022-12-25T10:06:23.744Z,141.40
2022-12-25T10:07:23.708Z,153.50
2022-12-25T10:08:23.729Z,148.30
2022-12-25T10:09:23.735Z,151.20
2022-12-25T10:10:23.690Z,153.40
2022-12-25T10:11:23.668Z,149.40
2022-12-25T10:12:23.675Z,154.30
2022-12-25T10:13:23.682Z,153.10
2022-12-25T10:14:23.776Z,158.20
2022-12-25T10:15:23.648Z,151.80
2022-12-25T10:16:23.724Z,154.60
2022-12-25T10:17:23.618Z,150.50
2022-12-25T10:18:23.618Z,154.40
2022-12-25T10:19:23.609Z,154.00
2022-12-25T10:20:23.586Z,151.70
2022-12-25T10:21:23.577Z,148.10
2022-12-25T10:22:23.564Z,149.50
2022-12-25T10:23:23.547Z,159.70
2022-12-25T10:24:23.572Z,159.80
2022-12-25T10:25:23.522Z,155.50
2022-12-25T10:26:23.531Z,151.80
2022-12-25T10:27:23.499Z,167.00
2022-12-25T10:28:23.497Z,163.70
2022-12-25T10:29:23.517Z,159.80
2022-12-25T10:30:23.501Z,156.20
2022-12-25T10:31:23.559Z,155.20
2022-12-25T10:32:23.448Z,160.80
2022-12-25T10:33:23.459Z,157.10
2022-12-25T10:34:23.485Z,163.20
2022-12-25T10:35:23.415Z,163.60
2022-12-25T10:36:23.425Z,165.80
2022-12-25T10:37:23.398Z,152.00
2022-12-25T10:38:23.391Z,155.80
2022-12-25T10:39:23.397Z,158.50
2022-12-25T10:40:23.393Z,153.70
2022-12-25T10:41:23.393Z,155.70
2022-12-25T10:42:23.359Z,157.80
2022-12-25T10:43:23.344Z,161.30
2022-12-25T10:44:23.361Z,154.20
2022-12-25T10:45:23.329Z,147.60
2022-12-25T10:46:23.426Z,149.00
2022-12-25T10:47:23.297Z,147.70
2022-12-25T10:48:23.316Z,155.70
2022-12-25T10:49:23.274Z,152.50
2022-12-25T10:50:23.293Z,146.80
2022-12-25T10:51:23.256Z,149.70
2022-12-25T10:52:23.256Z,158.40
2022-12-25T10:53:23.255Z,154.20
2022-12-25T10:54:23.247Z,154.10
2022-12-25T10:55:28.436Z,152.50
2022-12-25T10:56:23.218Z,153.10
2022-12-25T10:57:23.209Z,152.40
2022-12-25T10:58:23.238Z,146.80
2022-12-25T10:59:23.185Z,159.10
2022-12-25T11:00:23.195Z,169.10
2022-12-25T11:01:23.338Z,170.40
2022-12-25T11:02:23.410Z,163.00
2022-12-25T11:03:23.346Z,164.40
2022-12-25T11:04:23.125Z,164.40
2022-12-25T11:05:23.135Z,157.40
2022-12-25T11:06:23.121Z,149.70
2022-12-25T11:07:23.092Z,148.60
2022-12-25T11:08:23.097Z,155.20
2022-12-25T11:09:23.082Z,154.80
2022-12-25T11:10:23.108Z,155.40
2022-12-25T11:11:23.154Z,155.20
2022-12-25T11:12:23.057Z,151.50
2022-12-25T11:13:23.039Z,149.10
2022-12-25T11:14:23.041Z,149.20
2022-12-25T11:15:23.028Z,152.60
2022-12-25T11:16:23.071Z,153.80
2022-12-25T11:17:22.989Z,150.10
2022-12-25T11:18:22.989Z,147.70
2022-12-25T11:19:22.976Z,150.10
2022-12-25T11:20:22.989Z,144.90
2022-12-25T11:21:22.955Z,150.70
2022-12-25T11:22:29.438Z,154.30
2022-12-25T11:23:22.925Z,150.20
2022-12-25T11:24:22.929Z,148.30
2022-12-25T11:25:30.664Z,146.80
2022-12-25T11:26:29.393Z,153.40
2022-12-25T11:27:29.384Z,147.10
2022-12-25T11:28:22.885Z,148.20
2022-12-25T11:29:22.880Z,157.10
2022-12-25T11:30:22.885Z,158.40
2022-12-25T11:31:22.968Z,155.40
2022-12-25T11:32:22.864Z,152.30
2022-12-25T11:33:22.843Z,151.90
2022-12-25T11:34:22.830Z,156.10
2022-12-25T11:35:22.835Z,145.40
2022-12-25T11:36:22.816Z,153.00
2022-12-25T11:37:22.812Z,157.80
2022-12-25T11:38:22.780Z,162.80
2022-12-25T11:39:22.804Z,170.20
2022-12-25T11:40:22.779Z,169.00
2022-12-25T11:41:22.749Z,170.00
2022-12-25T11:42:22.739Z,170.10
2022-12-25T11:43:22.735Z,169.30
2022-12-25T11:44:22.717Z,163.70
2022-12-25T11:45:22.734Z,168.30
2022-12-25T11:46:22.745Z,169.20
2022-12-25T11:47:22.693Z,170.00
2022-12-25T11:48:22.705Z,172.30
2022-12-25T11:49:22.664Z,174.90
2022-12-25T11:50:22.688Z,179.10
2022-12-25T11:51:22.654Z,170.70
2022-12-25T11:52:22.674Z,173.20
2022-12-25T11:53:22.678Z,172.10
2022-12-25T11:54:22.616Z,163.40
2022-12-25T11:55:22.631Z,165.00
2022-12-25T11:56:22.603Z,169.90
2022-12-25T11:57:22.594Z,171.60
2022-12-25T11:58:22.611Z,170.40
2022-12-25T11:59:22.564Z,163.80
2022-12-25T12:00:22.607Z,165.90
2022-12-25T12:01:22.585Z,168.60
2022-12-25T12:02:22.732Z,172.80
2022-12-25T12:03:22.664Z,166.10
2022-12-25T12:04:27.631Z,171.70
2022-12-25T12:05:22.545Z,169.90
2022-12-25T12:06:22.496Z,165.30
2022-12-25T12:07:22.520Z,168.30
2022-12-25T12:08:22.506Z,181.30
2022-12-25T12:09:28.943Z,169.10
2022-12-25T12:10:22.480Z,178.40
2022-12-25T12:11:22.446Z,173.70
2022-12-25T12:12:22.437Z,168.60
2022-12-25T12:13:22.437Z,172.90
2022-12-25T12:14:22.423Z,176.00
2022-12-25T12:15:22.433Z,184.50
2022-12-25T12:16:22.438Z,180.20
2022-12-25T12:17:22.396Z,182.90
2022-12-25T12:18:22.405Z,175.90
2022-12-25T12:19:22.359Z,185.70
2022-12-25T12:20:22.361Z,187.60
2022-12-25T12:21:22.384Z,182.50
2022-12-25T12:22:22.347Z,183.90
2022-12-25T12:23:22.320Z,178.60
2022-12-25T12:24:22.323Z,184.60
2022-12-25T12:25:22.296Z,175.60
2022-12-25T12:26:22.311Z,174.20
2022-12-25T12:27:22.285Z,183.20
2022-12-25T12:28:22.274Z,190.20
2022-12-25T12:29:22.265Z,185.00